createdAt,value
2023-01-13T00:02:02.084Z,9.87
2023-01-13T00:04:36.251Z,9.80
2023-01-13T00:07:09.065Z,9.69
2023-01-13T00:09:41.896Z,9.63
2023-01-13T00:12:14.938Z,9.52
2023-01-13T00:14:47.762Z,9.31
2023-01-13T00:17:20.544Z,9.51
2023-01-13T00:19:54.689Z,9.55
2023-01-13T00:22:27.431Z,9.52
2023-01-13T00:25:01.406Z,9.32
2023-01-13T00:27:35.505Z,9.50
2023-01-13T00:30:10.224Z,9.50
2023-01-13T00:32:43.077Z,9.44
2023-01-13T00:35:17.530Z,9.50
2023-01-13T00:37:50.333Z,9.48
2023-01-13T00:40:23.114Z,9.24
2023-01-13T00:43:13.295Z,9.38
2023-01-13T00:45:46.517Z,9.33
2023-01-13T00:48:19.832Z,9.21
2023-01-13T00:50:57.767Z,9.26
2023-01-13T00:53:34.744Z,9.05
2023-01-13T00:56:09.875Z,9.24
2023-01-13T00:58:44.155Z,9.15
2023-01-13T01:01:19.740Z,9.18
2023-01-13T01:03:54.281Z,9.20
2023-01-13T01:06:29.299Z,9.23
2023-01-13T01:09:02.335Z,9.28
2023-01-13T01:11:35.283Z,9.28
2023-01-13T01:14:08.727Z,9.30
2023-01-13T01:16:42.586Z,9.30
2023-01-13T01:19:15.336Z,9.38
2023-01-13T01:21:49.454Z,9.23
2023-01-13T01:24:22.506Z,9.24
2023-01-13T01:26:55.255Z,9.32
2023-01-13T01:29:28.082Z,9.33
2023-01-13T01:32:00.882Z,9.28
2023-01-13T01:34:34.000Z,9.27
2023-01-13T01:37:08.158Z,9.26
2023-01-13T01:39:40.926Z,9.26
2023-01-13T01:42:34.867Z,9.28
2023-01-13T01:45:16.006Z,9.27
2023-01-13T01:47:52.105Z,9.23
2023-01-13T01:50:25.186Z,9.31
2023-01-13T01:53:06.407Z,9.28
2023-01-13T01:55:39.663Z,9.10
2023-01-13T01:58:16.290Z,9.06
2023-01-13T02:00:49.590Z,9.03
2023-01-13T02:03:23.167Z,8.81
2023-01-13T02:05:56.018Z,8.87
2023-01-13T02:08:30.345Z,8.89
2023-01-13T02:11:03.075Z,8.95
2023-01-13T02:13:34.923Z,8.78
2023-01-13T02:16:16.228Z,8.85
2023-01-13T02:18:57.706Z,8.84
2023-01-13T02:22:06.748Z,8.85
2023-01-13T02:25:02.617Z,8.78
2023-01-13T02:28:06.931Z,8.71
2023-01-13T02:31:06.551Z,8.69
2023-01-13T02:33:51.526Z,8.55
2023-01-13T02:36:39.221Z,8.72
2023-01-13T02:39:18.120Z,8.66
2023-01-13T02:42:18.816Z,8.51
2023-01-13T02:44:56.747Z,8.70
2023-01-13T02:47:33.486Z,8.72
2023-01-13T02:50:12.074Z,8.74
2023-01-13T02:52:50.363Z,8.74
2023-01-13T02:55:30.996Z,8.76
2023-01-13T02:58:07.129Z,8.73
2023-01-13T03:00:41.254Z,8.73
2023-01-13T03:03:15.550Z,8.58
2023-01-13T03:05:52.968Z,8.74
2023-01-13T03:08:39.510Z,8.74
2023-01-13T03:11:14.242Z,8.63
2023-01-13T03:14:12.204Z,8.59
2023-01-13T03:16:57.508Z,8.60
2023-01-13T03:19:40.555Z,8.63
2023-01-13T03:22:23.094Z,8.43
2023-01-13T03:25:01.902Z,8.31
2023-01-13T03:27:45.860Z,8.40
2023-01-13T03:30:22.286Z,8.37
2023-01-13T03:32:59.338Z,8.27
2023-01-13T03:35:38.363Z,8.30
2023-01-13T03:38:15.984Z,8.25
2023-01-13T03:40:54.597Z,8.20
2023-01-13T03:43:50.360Z,8.17
2023-01-13T03:46:26.892Z,8.13
2023-01-13T03:49:03.051Z,8.09
2023-01-13T03:51:42.209Z,8.09
2023-01-13T03:54:18.274Z,8.05
2023-01-13T03:56:56.395Z,8.01
2023-01-13T03:59:34.548Z,7.96
2023-01-13T04:02:11.916Z,7.96
2023-01-13T04:04:51.078Z,8.01
2023-01-13T04:07:33.850Z,7.91
2023-01-13T04:10:10.192Z,7.87
2023-01-13T04:13:01.832Z,8.02
2023-01-13T04:15:37.422Z,8.08
2023-01-13T04:18:13.293Z,7.98
2023-01-13T04:20:48.357Z,8.05
2023-01-13T04:23:24.067Z,8.10
2023-01-13T04:25:57.621Z,8.14
2023-01-13T04:28:30.396Z,8.15
2023-01-13T04:31:03.239Z,8.39
2023-01-13T04:33:35.993Z,8.35
2023-01-13T04:36:09.414Z,8.23
2023-01-13T04:38:43.761Z,8.42
2023-01-13T04:41:16.507Z,8.33
2023-01-13T04:43:49.484Z,8.35
2023-01-13T04:46:22.347Z,8.28
2023-01-13T04:48:55.142Z,8.35
2023-01-13T04:51:27.929Z,8.28
2023-01-13T04:54:02.074Z,8.25
2023-01-13T04:56:34.837Z,8.45
2023-01-13T04:59:07.611Z,8.25
2023-01-13T05:01:40.984Z,8.36
2023-01-13T05:04:15.385Z,8.41
2023-01-13T05:06:48.165Z,8.37
2023-01-13T05:09:22.600Z,8.29
2023-01-13T05:12:09.288Z,8.29
2023-01-13T05:14:59.906Z,8.26
2023-01-13T05:17:33.533Z,8.22
2023-01-13T05:20:07.500Z,8.26
2023-01-13T05:22:57.700Z,8.15
2023-01-13T05:25:31.917Z,8.08
2023-01-13T05:28:04.935Z,8.08
2023-01-13T05:30:39.156Z,8.12
2023-01-13T05:33:12.448Z,8.12
2023-01-13T05:35:47.986Z,8.09
2023-01-13T05:38:20.797Z,8.09
2023-01-13T05:41:12.325Z,8.03
2023-01-13T05:43:45.211Z,8.05
2023-01-13T05:46:18.260Z,8.08
2023-01-13T05:48:51.183Z,7.80
2023-01-13T05:51:26.254Z,7.88
2023-01-13T05:53:59.246Z,7.80
2023-01-13T05:56:33.583Z,7.85
2023-01-13T05:59:07.098Z,7.69
2023-01-13T06:01:39.878Z,7.98
2023-01-13T06:04:12.686Z,7.97
2023-01-13T06:06:45.455Z,8.04
2023-01-13T06:09:18.436Z,8.08
2023-01-13T06:11:52.766Z,8.03
2023-01-13T06:14:25.524Z,8.08
2023-01-13T06:16:58.316Z,8.09
2023-01-13T06:19:31.568Z,7.99
2023-01-13T06:22:13.479Z,8.16
2023-01-13T06:24:46.834Z,8.09
2023-01-13T06:27:22.547Z,8.07
2023-01-13T06:29:56.600Z,7.98
2023-01-13T06:32:35.531Z,7.94
2023-01-13T06:35:12.919Z,7.78
2023-01-13T06:37:48.796Z,7.79
2023-01-13T06:40:22.334Z,7.89
2023-01-13T06:43:17.843Z,7.99
2023-01-13T06:45:53.727Z,7.93
2023-01-13T06:48:32.861Z,7.92
2023-01-13T06:51:06.058Z,7.89
2023-01-13T06:53:38.853Z,7.95
2023-01-13T06:56:11.698Z,7.93
2023-01-13T06:58:45.865Z,7.86
2023-01-13T07:01:18.765Z,7.92
2023-01-13T07:03:51.768Z,7.77
2023-01-13T07:06:24.544Z,7.86
2023-01-13T07:08:57.551Z,7.90
2023-01-13T07:11:30.334Z,7.79
2023-01-13T07:14:22.347Z,7.81
2023-01-13T07:16:55.440Z,7.80
2023-01-13T07:19:28.313Z,7.75
2023-01-13T07:22:01.085Z,7.94
2023-01-13T07:24:33.922Z,7.98
2023-01-13T07:27:06.679Z,7.87
2023-01-13T07:29:40.884Z,7.78
2023-01-13T07:32:15.558Z,7.87
2023-01-13T07:34:48.660Z,7.94
2023-01-13T07:37:21.414Z,7.96
2023-01-13T07:39:54.222Z,7.87
2023-01-13T07:42:59.170Z,7.85
2023-01-13T07:45:33.390Z,7.89
2023-01-13T07:48:06.758Z,7.84
2023-01-13T07:50:39.602Z,7.67
2023-01-13T07:53:12.563Z,7.87
2023-01-13T07:55:45.364Z,7.90
2023-01-13T07:58:18.143Z,7.86
2023-01-13T08:00:53.668Z,7.94
2023-01-13T08:03:27.965Z,7.72
2023-01-13T08:06:02.159Z,7.86
2023-01-13T08:08:35.291Z,7.93
2023-01-13T08:11:09.438Z,7.84
2023-01-13T08:13:42.223Z,7.94
2023-01-13T08:16:16.796Z,7.83
2023-01-13T08:18:49.623Z,7.80
2023-01-13T08:21:22.375Z,8.01
2023-01-13T08:23:55.431Z,7.73
2023-01-13T08:26:28.387Z,7.62
2023-01-13T08:29:01.150Z,8.03
2023-01-13T08:31:35.331Z,8.04
2023-01-13T08:34:08.095Z,8.01
2023-01-13T08:36:41.124Z,8.00
2023-01-13T08:39:13.860Z,7.98
2023-01-13T08:41:59.181Z,8.01
2023-01-13T08:44:32.872Z,8.02
2023-01-13T08:47:07.079Z,8.02
2023-01-13T08:49:39.964Z,8.03
2023-01-13T08:52:12.767Z,8.09
2023-01-13T08:54:45.561Z,8.07
2023-01-13T08:57:19.451Z,7.91
2023-01-13T08:59:52.376Z,8.13
2023-01-13T09:02:27.271Z,7.77
2023-01-13T09:05:00.335Z,8.09
2023-01-13T09:07:33.186Z,8.18
2023-01-13T09:10:07.686Z,8.18
2023-01-13T09:12:58.472Z,8.15
2023-01-13T09:15:31.321Z,8.20
2023-01-13T09:18:05.581Z,8.25
2023-01-13T09:20:38.485Z,8.21
2023-01-13T09:23:11.593Z,8.27
2023-01-13T09:25:44.523Z,8.13
2023-01-13T09:28:17.548Z,8.02
2023-01-13T09:30:50.561Z,8.32
2023-01-13T09:33:42.395Z,8.35
2023-01-13T09:36:15.288Z,8.36
2023-01-13T09:38:50.033Z,8.30
2023-01-13T09:41:43.372Z,8.45
2023-01-13T09:44:22.462Z,8.59
2023-01-13T09:47:00.935Z,8.67
2023-01-13T09:49:40.014Z,8.61
2023-01-13T09:52:19.182Z,8.62
2023-01-13T09:54:58.719Z,8.61
2023-01-13T09:57:37.453Z,8.61
2023-01-13T10:00:13.780Z,8.44
2023-01-13T10:03:05.066Z,8.63
2023-01-13T10:05:42.285Z,8.61
2023-01-13T10:08:21.210Z,8.68
2023-01-13T10:10:57.041Z,8.71
2023-01-13T10:13:30.914Z,8.73
2023-01-13T10:16:18.727Z,8.73
2023-01-13T10:19:04.334Z,8.69
2023-01-13T10:22:07.288Z,8.75
2023-01-13T10:25:09.829Z,8.54
2023-01-13T10:27:46.659Z,8.74
2023-01-13T10:30:23.814Z,8.78
2023-01-13T10:32:58.822Z,8.73
2023-01-13T10:35:49.825Z,8.94
2023-01-13T10:38:26.975Z,8.89
2023-01-13T10:41:01.237Z,8.98
2023-01-13T10:43:34.114Z,8.91
2023-01-13T10:46:11.206Z,8.90
2023-01-13T10:48:52.104Z,8.92
2023-01-13T10:51:27.572Z,9.00
2023-01-13T10:54:04.455Z,8.94
2023-01-13T10:56:37.234Z,8.87
2023-01-13T10:59:15.559Z,8.81
2023-01-13T11:02:04.021Z,8.82
2023-01-13T11:04:43.530Z,8.81
2023-01-13T11:07:30.640Z,8.75
2023-01-13T11:10:17.396Z,8.69
2023-01-13T11:13:00.120Z,8.75
2023-01-13T11:15:40.792Z,8.76
2023-01-13T11:18:23.105Z,8.88
2023-01-13T11:20:57.370Z,8.94
2023-01-13T11:23:35.309Z,8.96
2023-01-13T11:26:15.591Z,8.96
2023-01-13T11:28:54.220Z,8.95
2023-01-13T11:31:33.305Z,8.84
2023-01-13T11:34:15.097Z,8.82
2023-01-13T11:36:52.499Z,8.62
2023-01-13T11:39:30.933Z,8.55
2023-01-13T11:42:22.182Z,8.47
2023-01-13T11:45:04.557Z,8.47
2023-01-13T11:47:37.873Z,8.37
2023-01-13T11:50:18.562Z,8.36
2023-01-13T11:53:05.376Z,8.30
2023-01-13T11:55:50.491Z,8.20
2023-01-13T11:58:51.386Z,8.11
2023-01-13T12:01:39.159Z,7.85
2023-01-13T12:04:26.885Z,7.62
2023-01-13T12:07:12.789Z,7.49
2023-01-13T12:10:05.212Z,7.48
2023-01-13T12:12:49.846Z,7.44
2023-01-13T12:15:57.109Z,7.57
2023-01-13T12:18:42.790Z,7.68
2023-01-13T12:21:23.697Z,7.67
2023-01-13T12:24:05.059Z,7.75
2023-01-13T12:26:41.724Z,7.84
2023-01-13T12:29:18.918Z,8.01
2023-01-13T12:31:53.669Z,8.01
2023-01-13T12:34:36.483Z,7.95
2023-01-13T12:37:16.593Z,8.09
2023-01-13T12:40:12.162Z,8.14
2023-01-13T12:43:07.305Z,8.25
2023-01-13T12:45:40.135Z,8.35
2023-01-13T12:48:48.982Z,8.39
2023-01-13T12:51:23.924Z,8.31
2023-01-13T12:53:57.291Z,8.23
2023-01-13T12:56:42.024Z,8.25
2023-01-13T12:59:48.905Z,8.22
2023-01-13T13:02:33.619Z,8.10
2023-01-13T13:05:42.636Z,7.88
2023-01-13T13:08:21.605Z,7.51
2023-01-13T13:11:07.567Z,7.12
2023-01-13T13:13:44.359Z,7.12
2023-01-13T13:16:46.537Z,7.00
2023-01-13T13:19:48.087Z,7.12
2023-01-13T13:22:44.017Z,7.15
2023-01-13T13:25:26.132Z,7.12
2023-01-13T13:28:18.745Z,6.84
2023-01-13T13:31:09.479Z,6.89
2023-01-13T13:34:12.610Z,6.82
2023-01-13T13:37:16.514Z,6.78
2023-01-13T13:40:08.483Z,6.70
2023-01-13T13:43:02.054Z,6.65
2023-01-13T13:46:03.723Z,6.78
2023-01-13T13:48:37.187Z,6.92
2023-01-13T13:51:24.948Z,6.79
2023-01-13T13:54:02.609Z,6.86
2023-01-13T13:56:44.582Z,6.93
2023-01-13T13:59:20.525Z,6.95
2023-01-13T14:02:01.326Z,6.92
2023-01-13T14:04:37.045Z,6.95
2023-01-13T14:07:20.434Z,6.83
2023-01-13T14:09:56.381Z,6.87
2023-01-13T14:12:38.423Z,6.97
2023-01-13T14:15:25.834Z,7.01
2023-01-13T14:17:59.366Z,7.01
2023-01-13T14:20:34.590Z,7.12
2023-01-13T14:23:08.162Z,7.17
2023-01-13T14:25:47.838Z,7.19
2023-01-13T14:28:32.175Z,7.25
2023-01-13T14:31:07.502Z,7.24
2023-01-13T14:33:44.095Z,7.23
2023-01-13T14:36:20.193Z,7.13
2023-01-13T14:39:26.991Z,7.19
2023-01-13T14:41:59.775Z,7.17
2023-01-13T14:44:36.841Z,7.17
2023-01-13T14:47:20.946Z,7.13
2023-01-13T14:50:00.359Z,7.16
2023-01-13T14:52:34.903Z,7.19
2023-01-13T14:55:28.608Z,7.19
2023-01-13T14:58:25.055Z,7.17
2023-01-13T15:01:31.036Z,7.14
2023-01-13T15:04:26.427Z,7.06
2023-01-13T15:07:01.276Z,7.11
2023-01-13T15:09:40.847Z,7.14
2023-01-13T15:12:17.992Z,7.16
2023-01-13T15:14:52.085Z,7.07
2023-01-13T15:17:26.261Z,7.08
2023-01-13T15:20:00.728Z,7.09
2023-01-13T15:22:33.500Z,7.01
2023-01-13T15:25:09.448Z,7.04
2023-01-13T15:27:44.175Z,7.03
2023-01-13T15:30:18.680Z,7.07
2023-01-13T15:32:54.870Z,7.08
2023-01-13T15:35:30.397Z,6.97
2023-01-13T15:38:03.190Z,7.01
2023-01-13T15:40:35.983Z,7.00
2023-01-13T15:43:31.652Z,6.98
2023-01-13T15:46:28.390Z,6.95
2023-01-13T15:49:09.652Z,6.94
2023-01-13T15:51:42.486Z,6.98
2023-01-13T15:54:15.361Z,7.01
2023-01-13T15:56:48.298Z,7.05
2023-01-13T15:59:25.045Z,6.97
2023-01-13T16:01:57.855Z,7.03
2023-01-13T16:04:32.118Z,7.06
2023-01-13T16:07:14.544Z,7.07
2023-01-13T16:09:47.964Z,7.09
2023-01-13T16:12:21.054Z,7.10
2023-01-13T16:14:53.850Z,7.06
2023-01-13T16:17:29.935Z,7.06
2023-01-13T16:20:04.885Z,7.07
2023-01-13T16:22:37.688Z,7.08
2023-01-13T16:25:17.467Z,7.08
2023-01-13T16:27:51.532Z,7.13
2023-01-13T16:30:26.943Z,7.09
2023-01-13T16:32:59.782Z,7.14
2023-01-13T16:35:35.206Z,7.14
2023-01-13T16:38:08.062Z,7.13
2023-01-13T16:40:40.877Z,7.15
2023-01-13T16:43:14.779Z,7.22
2023-01-13T16:45:47.557Z,7.23
2023-01-13T16:48:22.638Z,7.26
2023-01-13T16:50:57.053Z,7.31
2023-01-13T16:53:30.078Z,7.28
2023-01-13T16:56:03.185Z,7.36
2023-01-13T16:58:35.977Z,7.38
2023-01-13T17:01:13.177Z,7.35
2023-01-13T17:03:48.998Z,7.34
2023-01-13T17:06:28.237Z,7.44
2023-01-13T17:09:02.116Z,7.39
2023-01-13T17:11:35.546Z,7.50
2023-01-13T17:14:19.330Z,7.50
2023-01-13T17:16:54.794Z,7.49
2023-01-13T17:19:27.809Z,7.46
2023-01-13T17:22:02.181Z,7.48
2023-01-13T17:24:35.131Z,7.48
2023-01-13T17:27:07.977Z,7.54
2023-01-13T17:29:40.913Z,7.49
2023-01-13T17:32:16.958Z,7.48
2023-01-13T17:34:50.133Z,7.71
2023-01-13T17:37:24.338Z,7.50
2023-01-13T17:39:57.114Z,7.51
2023-01-13T17:42:29.952Z,7.49
2023-01-13T17:45:03.164Z,7.52
2023-01-13T17:47:37.029Z,7.53
2023-01-13T17:50:11.578Z,7.51
2023-01-13T17:52:45.700Z,7.55
2023-01-13T17:55:20.890Z,7.49
2023-01-13T17:57:53.684Z,7.48
2023-01-13T18:00:26.456Z,7.44
2023-01-13T18:02:59.279Z,7.50
2023-01-13T18:05:33.932Z,7.51
2023-01-13T18:08:09.475Z,7.50
2023-01-13T18:10:42.304Z,7.52
2023-01-13T18:13:15.527Z,7.48
2023-01-13T18:15:48.349Z,7.46
2023-01-13T18:18:21.175Z,7.41
2023-01-13T18:21:12.208Z,7.31
2023-01-13T18:24:03.842Z,7.29
2023-01-13T18:26:54.653Z,7.30
2023-01-13T18:29:28.391Z,7.30
2023-01-13T18:32:01.311Z,7.28
2023-01-13T18:34:34.313Z,7.24
2023-01-13T18:37:08.759Z,7.26
2023-01-13T18:39:43.691Z,7.39
2023-01-13T18:42:33.838Z,7.31
2023-01-13T18:45:08.944Z,7.32
2023-01-13T18:47:43.223Z,7.18
2023-01-13T18:50:17.163Z,7.33
2023-01-13T18:52:50.502Z,7.29
2023-01-13T18:55:25.715Z,7.30
2023-01-13T18:57:59.040Z,7.32
2023-01-13T19:00:36.479Z,7.34
2023-01-13T19:03:09.358Z,7.39
2023-01-13T19:05:42.834Z,7.32
2023-01-13T19:08:16.033Z,7.34
2023-01-13T19:10:52.679Z,7.51
2023-01-13T19:13:25.458Z,7.50
2023-01-13T19:15:58.513Z,7.46
2023-01-13T19:18:31.281Z,7.54
2023-01-13T19:21:04.684Z,7.49
2023-01-13T19:23:37.915Z,7.53
2023-01-13T19:26:13.547Z,7.61
2023-01-13T19:28:46.406Z,7.54
2023-01-13T19:31:20.497Z,7.58
2023-01-13T19:33:53.385Z,7.60
2023-01-13T19:36:26.841Z,7.57
2023-01-13T19:39:00.068Z,7.55
2023-01-13T19:41:51.976Z,7.64
2023-01-13T19:44:42.272Z,7.64
2023-01-13T19:47:15.119Z,7.63
2023-01-13T19:49:47.938Z,7.56
2023-01-13T19:52:20.737Z,7.57
2023-01-13T19:54:53.780Z,7.44
2023-01-13T19:57:27.989Z,7.45
2023-01-13T20:00:00.807Z,7.36
2023-01-13T20:02:36.419Z,7.29
2023-01-13T20:05:10.350Z,7.17
2023-01-13T20:07:43.172Z,7.15
2023-01-13T20:10:17.023Z,7.19
2023-01-13T20:12:51.652Z,7.18
2023-01-13T20:15:24.764Z,7.15
2023-01-13T20:17:58.661Z,7.18
2023-01-13T20:20:31.519Z,7.18
2023-01-13T20:23:04.627Z,7.19
2023-01-13T20:25:44.259Z,7.15
2023-01-13T20:28:19.852Z,7.14
2023-01-13T20:30:53.309Z,7.09
2023-01-13T20:33:26.102Z,7.13
2023-01-13T20:35:59.352Z,7.11
2023-01-13T20:38:37.322Z,7.15
2023-01-13T20:41:24.255Z,7.16
2023-01-13T20:43:58.456Z,7.11
2023-01-13T20:46:31.265Z,7.15
2023-01-13T20:49:04.471Z,7.09
2023-01-13T20:51:37.552Z,6.99
2023-01-13T20:54:10.383Z,6.43
2023-01-13T20:56:43.507Z,6.37
2023-01-13T20:59:18.171Z,6.37
2023-01-13T21:01:51.066Z,6.28
2023-01-13T21:04:23.873Z,6.29
2023-01-13T21:06:57.011Z,6.28
2023-01-13T21:09:30.405Z,6.30
2023-01-13T21:12:21.261Z,6.26
2023-01-13T21:15:21.178Z,6.19
2023-01-13T21:18:11.676Z,6.27
2023-01-13T21:20:44.562Z,6.31
2023-01-13T21:23:17.346Z,6.36
2023-01-13T21:25:50.196Z,6.42
2023-01-13T21:28:22.956Z,6.44
2023-01-13T21:31:02.698Z,6.51
2023-01-13T21:33:35.783Z,6.51
2023-01-13T21:36:09.521Z,6.50
2023-01-13T21:38:42.436Z,6.60
2023-01-13T21:41:35.194Z,6.64
2023-01-13T21:44:32.714Z,6.57
2023-01-13T21:47:33.070Z,6.61
2023-01-13T21:50:09.881Z,6.61
2023-01-13T21:52:43.437Z,6.60
2023-01-13T21:55:28.187Z,6.60
2023-01-13T21:58:07.587Z,6.61
2023-01-13T22:00:43.557Z,6.62
2023-01-13T22:03:18.614Z,6.62
2023-01-13T22:05:54.118Z,6.62
2023-01-13T22:08:26.937Z,6.51
2023-01-13T22:11:03.408Z,6.53
2023-01-13T22:13:53.835Z,6.53
2023-01-13T22:16:26.973Z,6.56
2023-01-13T22:19:01.246Z,6.58
2023-01-13T22:21:34.442Z,6.48
2023-01-13T22:24:08.388Z,6.55
2023-01-13T22:26:41.151Z,6.49
2023-01-13T22:29:13.924Z,6.69
2023-01-13T22:31:46.761Z,6.53
2023-01-13T22:34:21.008Z,6.66
2023-01-13T22:36:53.847Z,6.79
2023-01-13T22:39:27.244Z,6.85
2023-01-13T22:42:00.037Z,6.64
2023-01-13T22:44:33.877Z,6.74
2023-01-13T22:47:08.452Z,6.75
2023-01-13T22:49:47.370Z,6.87
2023-01-13T22:52:22.196Z,6.82
2023-01-13T22:54:55.309Z,6.82
2023-01-13T22:57:36.150Z,6.77
2023-01-13T23:00:18.664Z,6.95
2023-01-13T23:02:51.428Z,6.75
2023-01-13T23:05:27.599Z,6.78
2023-01-13T23:08:00.595Z,7.03
2023-01-13T23:10:33.885Z,6.98
2023-01-13T23:13:06.975Z,7.03
2023-01-13T23:15:39.722Z,7.06
2023-01-13T23:18:12.540Z,6.92
2023-01-13T23:20:47.032Z,7.04
2023-01-13T23:23:20.297Z,7.05
2023-01-13T23:25:55.396Z,6.94
2023-01-13T23:28:28.188Z,7.13
2023-01-13T23:31:01.079Z,7.11
2023-01-13T23:33:34.003Z,6.91
2023-01-13T23:36:11.457Z,6.85
2023-01-13T23:38:44.453Z,6.81
2023-01-13T23:41:19.249Z,6.97
2023-01-13T23:43:53.235Z,6.91
2023-01-13T23:46:26.967Z,6.98
2023-01-13T23:48:59.851Z,6.96
2023-01-13T23:51:33.953Z,7.01
2023-01-13T23:54:06.959Z,7.20
2023-01-13T23:56:40.025Z,6.95
2023-01-13T23:59:12.785Z,6.96
